createdAt,value
2018-07-12T00:01:58.138Z,30.10
2018-07-12T00:04:25.372Z,34.57
2018-07-12T00:06:52.841Z,29.63
2018-07-12T00:09:20.061Z,27.63
2018-07-12T00:11:47.295Z,26.30
2018-07-12T00:14:14.781Z,28.00
2018-07-12T00:16:41.989Z,32.80
2018-07-12T00:19:09.218Z,27.80
2018-07-12T00:21:36.437Z,35.90
2018-07-12T00:24:03.686Z,37.83
2018-07-12T00:26:31.159Z,34.00
2018-07-12T00:28:58.365Z,34.23
2018-07-12T00:31:25.630Z,28.40
2018-07-12T00:33:52.870Z,27.63
2018-07-12T00:36:20.086Z,29.03
2018-07-12T00:38:47.612Z,28.97
2018-07-12T00:41:15.039Z,29.23
2018-07-12T00:43:42.257Z,29.43
2018-07-12T00:46:09.509Z,24.70
2018-07-12T00:48:36.768Z,25.53
2018-07-12T00:51:03.986Z,25.30
2018-07-12T00:53:31.208Z,33.00
2018-07-12T00:55:58.429Z,24.83
2018-07-12T00:58:25.692Z,27.07
2018-07-12T01:00:52.906Z,28.77
2018-07-12T01:03:20.157Z,25.13
2018-07-12T01:05:47.376Z,28.70
2018-07-12T01:08:14.585Z,35.60
2018-07-12T01:10:41.861Z,32.57
2018-07-12T01:13:09.070Z,27.60
2018-07-12T01:15:36.742Z,27.90
2018-07-12T01:18:03.993Z,34.67
2018-07-12T01:20:31.209Z,31.73
2018-07-12T01:22:58.435Z,39.27
2018-07-12T01:25:25.645Z,37.53
2018-07-12T01:27:52.877Z,31.50
2018-07-12T01:30:20.135Z,27.87
2018-07-12T01:32:47.397Z,27.23
2018-07-12T01:35:14.679Z,38.10
2018-07-12T01:37:41.881Z,39.13
2018-07-12T01:40:09.303Z,27.23
2018-07-12T01:42:36.561Z,31.17
2018-07-12T01:45:03.786Z,29.60
2018-07-12T01:47:31.042Z,37.90
2018-07-12T01:49:58.265Z,29.80
2018-07-12T01:52:25.493Z,35.53
2018-07-12T01:54:52.765Z,31.40
2018-07-12T01:57:20.205Z,27.33
2018-07-12T01:59:47.483Z,26.67
2018-07-12T02:02:14.729Z,31.10
2018-07-12T02:04:41.977Z,36.50
2018-07-12T02:07:09.181Z,30.50
2018-07-12T02:09:36.454Z,31.27
2018-07-12T02:12:03.972Z,35.13
2018-07-12T02:14:31.272Z,29.97
2018-07-12T02:16:58.613Z,33.47
2018-07-12T02:19:25.798Z,28.90
2018-07-12T02:21:53.156Z,37.30
2018-07-12T02:24:20.366Z,25.60
2018-07-12T02:26:47.577Z,32.30
2018-07-12T02:29:14.800Z,33.03
2018-07-12T02:31:42.303Z,35.20
2018-07-12T02:34:09.534Z,41.57
2018-07-12T02:36:36.794Z,28.93
2018-07-12T02:39:04.397Z,37.50
2018-07-12T02:41:31.667Z,35.43
2018-07-12T02:43:58.948Z,35.50
2018-07-12T02:46:26.178Z,35.97
2018-07-12T02:48:53.391Z,32.93
2018-07-12T02:51:20.615Z,34.17
2018-07-12T02:53:47.870Z,31.50
2018-07-12T02:56:15.114Z,30.23
2018-07-12T02:58:42.345Z,37.17
2018-07-12T03:01:09.845Z,35.43
2018-07-12T03:03:37.103Z,32.00
2018-07-12T03:06:04.330Z,33.73
2018-07-12T03:08:31.588Z,34.23
2018-07-12T03:10:59.209Z,31.33
2018-07-12T03:13:26.418Z,43.07
2018-07-12T03:15:53.688Z,35.33
2018-07-12T03:18:20.910Z,30.13
2018-07-12T03:20:48.445Z,32.40
2018-07-12T03:23:15.998Z,30.97
2018-07-12T03:25:43.237Z,30.70
2018-07-12T03:28:10.489Z,29.17
2018-07-12T03:30:37.965Z,33.93
2018-07-12T03:33:05.198Z,29.67
2018-07-12T03:35:32.430Z,30.33
2018-07-12T03:37:59.646Z,29.07
2018-07-12T03:40:26.903Z,33.87
2018-07-12T03:42:54.090Z,34.93
2018-07-12T03:45:21.400Z,29.47
2018-07-12T03:47:48.856Z,27.17
2018-07-12T03:50:16.068Z,31.67
2018-07-12T03:52:43.270Z,28.90
2018-07-12T03:55:10.561Z,27.13
2018-07-12T03:57:37.769Z,35.37
2018-07-12T04:00:05.312Z,29.43
2018-07-12T04:02:32.525Z,32.97
2018-07-12T04:04:59.798Z,31.77
2018-07-12T04:07:26.970Z,30.43
2018-07-12T04:09:54.221Z,32.17
2018-07-12T04:12:21.525Z,33.80
2018-07-12T04:14:48.767Z,34.00
2018-07-12T04:17:28.244Z,29.47
2018-07-12T04:19:56.013Z,28.30
2018-07-12T04:22:23.218Z,39.03
2018-07-12T04:24:50.610Z,31.60
2018-07-12T04:27:18.634Z,24.77
2018-07-12T04:29:46.217Z,24.00
2018-07-12T04:32:13.806Z,22.23
2018-07-12T04:34:41.079Z,34.97
2018-07-12T04:37:08.275Z,27.70
2018-07-12T04:39:35.490Z,27.23
2018-07-12T04:42:02.815Z,27.10
2018-07-12T04:44:30.086Z,27.50
2018-07-12T04:46:57.301Z,27.47
2018-07-12T04:49:24.537Z,23.93
2018-07-12T04:51:53.359Z,23.17
2018-07-12T04:56:44.202Z,24.33
2018-07-12T04:59:11.426Z,23.30
2018-07-12T05:01:38.641Z,20.23
2018-07-12T05:04:05.921Z,23.43
2018-07-12T05:06:33.636Z,20.83
2018-07-12T05:09:01.161Z,20.07
2018-07-12T05:11:28.372Z,19.73
2018-07-12T05:13:55.617Z,19.13
2018-07-12T05:16:23.628Z,21.33
2018-07-12T05:18:51.504Z,16.97
2018-07-12T05:21:18.759Z,21.30
2018-07-12T05:23:46.023Z,16.90
2018-07-12T05:26:13.335Z,13.73
2018-07-12T05:28:40.618Z,18.30
2018-07-12T05:31:08.097Z,16.37
2018-07-12T05:33:35.378Z,16.77
2018-07-12T05:36:19.467Z,17.97
2018-07-12T05:38:47.717Z,18.37
2018-07-12T05:41:15.928Z,15.97
2018-07-12T05:43:44.130Z,22.23
2018-07-12T05:46:12.358Z,20.40
2018-07-12T05:48:40.595Z,16.47
2018-07-12T05:51:08.812Z,18.00
2018-07-12T05:53:37.098Z,18.90
2018-07-12T05:56:05.353Z,16.73
2018-07-12T05:58:33.649Z,18.20
2018-07-12T06:01:01.958Z,20.90
2018-07-12T06:03:30.176Z,18.27
2018-07-12T06:05:58.487Z,18.53
2018-07-12T06:08:26.685Z,20.23
2018-07-12T06:10:54.898Z,15.83
2018-07-12T06:13:23.112Z,22.30
2018-07-12T06:15:51.329Z,15.90
2018-07-12T06:18:19.578Z,18.33
2018-07-12T06:20:47.829Z,15.73
2018-07-12T06:23:16.096Z,16.37
2018-07-12T06:25:44.090Z,15.40
2018-07-12T06:28:12.333Z,15.60
2018-07-12T06:30:40.550Z,15.13
2018-07-12T06:33:09.252Z,15.00
2018-07-12T06:35:37.500Z,16.90
2018-07-12T06:38:05.749Z,19.30
2018-07-12T06:40:33.993Z,17.37
2018-07-12T06:43:02.238Z,18.00
2018-07-12T06:45:30.495Z,13.80
2018-07-12T06:47:58.766Z,16.10
2018-07-12T06:50:27.082Z,16.37
2018-07-12T06:52:55.452Z,14.17
2018-07-12T06:55:23.714Z,20.47
2018-07-12T06:57:51.965Z,14.70
2018-07-12T07:00:19.981Z,16.50
2018-07-12T07:02:47.981Z,15.23
2018-07-12T07:05:16.310Z,12.73
2018-07-12T07:07:44.882Z,15.20
2018-07-12T07:10:12.904Z,14.93
2018-07-12T07:12:41.290Z,13.57
2018-07-12T07:15:09.545Z,16.70
2018-07-12T07:17:37.905Z,12.13
2018-07-12T07:20:06.246Z,13.43
2018-07-12T07:22:34.768Z,11.97
2018-07-12T07:25:03.357Z,12.47
2018-07-12T07:27:31.606Z,16.43
2018-07-12T07:29:59.869Z,14.77
2018-07-12T07:32:28.237Z,17.63
2018-07-12T07:34:56.517Z,15.10
2018-07-12T07:37:24.757Z,13.33
2018-07-12T07:39:52.970Z,11.80
2018-07-12T07:42:21.210Z,12.17
2018-07-12T07:44:49.626Z,16.77
2018-07-12T07:47:17.982Z,16.23
2018-07-12T07:49:46.273Z,13.17
2018-07-12T07:52:14.466Z,10.37
2018-07-12T07:54:42.719Z,10.57
2018-07-12T07:57:11.111Z,9.30
2018-07-12T07:59:39.762Z,9.43
2018-07-12T08:02:07.970Z,12.60
2018-07-12T08:04:36.590Z,12.93
2018-07-12T08:07:04.845Z,13.53
2018-07-12T08:09:33.577Z,12.73
2018-07-12T08:12:01.603Z,12.00
2018-07-12T08:14:29.898Z,11.27
2018-07-12T08:16:58.122Z,11.80
2018-07-12T08:19:26.393Z,8.10
2018-07-12T08:22:04.394Z,10.03
2018-07-12T08:24:32.642Z,8.77
2018-07-12T08:27:01.139Z,7.90
2018-07-12T08:29:29.630Z,7.87
2018-07-12T08:31:57.921Z,9.93
2018-07-12T08:34:26.542Z,7.70
2018-07-12T08:36:54.955Z,11.00
2018-07-12T08:39:23.382Z,8.03
2018-07-12T08:41:51.922Z,8.60
2018-07-12T08:44:20.177Z,7.93
2018-07-12T08:46:48.381Z,7.73
2018-07-12T08:49:17.154Z,8.07
2018-07-12T08:51:45.648Z,8.87
2018-07-12T08:54:13.897Z,7.70
2018-07-12T08:56:42.609Z,9.87
2018-07-12T08:59:10.842Z,9.47
2018-07-12T09:01:39.439Z,7.53
2018-07-12T09:04:07.721Z,7.60
2018-07-12T09:06:35.940Z,8.17
2018-07-12T09:09:05.127Z,7.77
2018-07-12T09:11:33.394Z,6.83
2018-07-12T09:14:01.777Z,9.63
2018-07-12T09:16:30.283Z,8.47
2018-07-12T09:18:58.693Z,9.10
2018-07-12T09:21:27.063Z,6.67
2018-07-12T09:23:55.338Z,10.40
2018-07-12T09:26:23.683Z,6.10
2018-07-12T09:28:52.057Z,6.63
2018-07-12T09:31:20.417Z,6.47
2018-07-12T09:33:48.754Z,6.57
2018-07-12T09:36:17.337Z,7.33
2018-07-12T09:38:50.582Z,5.53
2018-07-12T09:41:20.010Z,8.57
2018-07-12T09:43:49.246Z,7.10
2018-07-12T09:46:17.717Z,4.90
2018-07-12T09:48:47.026Z,6.97
2018-07-12T09:51:15.559Z,7.40
2018-07-12T09:53:44.954Z,7.27
2018-07-12T09:56:13.336Z,8.13
2018-07-12T09:58:41.480Z,9.50
2018-07-12T10:01:15.276Z,8.67
2018-07-12T10:03:47.985Z,8.57
2018-07-12T10:06:21.599Z,7.90
2018-07-12T10:08:56.628Z,4.40
2018-07-12T10:11:30.515Z,6.97
2018-07-12T10:14:04.208Z,6.30
2018-07-12T10:16:37.881Z,8.17
2018-07-12T10:19:06.225Z,5.17
2018-07-12T10:21:34.466Z,7.40
2018-07-12T10:24:02.843Z,8.53
2018-07-12T10:26:31.106Z,6.80
2018-07-12T10:28:59.383Z,7.07
2018-07-12T10:31:27.647Z,8.20
2018-07-12T10:33:55.910Z,7.40
2018-07-12T10:36:24.258Z,7.00
2018-07-12T10:38:52.537Z,6.80
2018-07-12T10:41:20.856Z,7.03
2018-07-12T10:43:49.217Z,7.00
2018-07-12T10:46:17.489Z,9.87
2018-07-12T10:48:45.731Z,4.70
2018-07-12T10:51:13.959Z,4.27
2018-07-12T10:53:42.273Z,7.10
2018-07-12T10:56:10.549Z,7.00
2018-07-12T10:58:38.905Z,5.23
2018-07-12T11:01:07.391Z,8.40
2018-07-12T11:03:35.717Z,5.60
2018-07-12T11:06:04.039Z,4.40
2018-07-12T11:08:32.291Z,6.90
2018-07-12T11:11:00.557Z,5.20
2018-07-12T11:13:40.249Z,7.43
2018-07-12T11:16:08.526Z,9.90
2018-07-12T11:18:36.802Z,8.73
2018-07-12T11:21:05.113Z,7.30
2018-07-12T11:23:33.360Z,5.23
2018-07-12T11:26:01.646Z,8.63
2018-07-12T11:28:29.891Z,5.30
2018-07-12T11:30:58.261Z,5.70
2018-07-12T11:33:36.628Z,7.93
2018-07-12T11:36:05.494Z,7.60
2018-07-12T11:38:34.356Z,4.77
2018-07-12T11:41:03.246Z,6.00
2018-07-12T11:43:31.789Z,4.23
2018-07-12T11:46:02.126Z,5.33
2018-07-12T11:48:30.176Z,4.63
2018-07-12T11:50:58.537Z,6.83
2018-07-12T11:53:27.334Z,5.27
2018-07-12T11:55:55.906Z,4.40
2018-07-12T11:58:24.721Z,6.93
2018-07-12T12:00:53.754Z,4.47
2018-07-12T12:03:22.138Z,5.10
2018-07-12T12:05:50.390Z,4.30
2018-07-12T12:08:18.782Z,4.60
2018-07-12T12:10:47.069Z,5.17
2018-07-12T12:13:16.140Z,6.27
2018-07-12T12:15:44.751Z,7.40
2018-07-12T12:18:13.226Z,6.13
2018-07-12T12:20:41.502Z,5.07
2018-07-12T12:23:09.777Z,8.53
2018-07-12T12:25:38.052Z,4.80
2018-07-12T12:28:06.323Z,5.13
2018-07-12T12:30:34.637Z,7.33
2018-07-12T12:33:02.869Z,6.00
2018-07-12T12:35:31.122Z,7.13
2018-07-12T12:37:59.535Z,8.23
2018-07-12T12:40:27.915Z,4.50
2018-07-12T12:42:56.169Z,4.93
2018-07-12T12:45:24.447Z,5.27
2018-07-12T12:47:52.757Z,6.70
2018-07-12T12:50:21.042Z,6.77
2018-07-12T12:52:49.285Z,4.07
2018-07-12T12:55:17.513Z,6.63
2018-07-12T12:57:46.023Z,9.73
2018-07-12T13:00:14.181Z,5.10
2018-07-12T13:02:42.964Z,5.03
2018-07-12T13:05:11.269Z,8.37
2018-07-12T13:07:39.573Z,6.93
2018-07-12T13:10:07.808Z,5.03
2018-07-12T13:12:36.091Z,7.80
2018-07-12T13:15:04.672Z,6.07
2018-07-12T13:17:33.001Z,7.47
2018-07-12T13:20:01.359Z,8.90
2018-07-12T13:22:29.646Z,5.20
2018-07-12T13:24:57.959Z,9.70
2018-07-12T13:27:26.226Z,6.47
2018-07-12T13:29:54.433Z,4.80
2018-07-12T13:32:22.798Z,5.73
2018-07-12T13:34:51.077Z,9.63
2018-07-12T13:37:19.528Z,7.20
2018-07-12T13:39:47.869Z,6.43
2018-07-12T13:42:16.096Z,6.83
2018-07-12T13:44:44.436Z,7.20
2018-07-12T13:47:12.883Z,7.57
2018-07-12T13:49:41.193Z,4.90
2018-07-12T13:52:09.467Z,3.77
2018-07-12T13:54:37.919Z,6.73
2018-07-12T13:57:06.526Z,8.57
2018-07-12T13:59:34.881Z,7.80
2018-07-12T14:02:03.254Z,8.70
2018-07-12T14:04:31.580Z,5.23
2018-07-12T14:06:59.981Z,7.83
2018-07-12T14:09:28.310Z,6.50
2018-07-12T14:15:08.383Z,4.40
2018-07-12T14:17:36.659Z,7.03
2018-07-12T14:20:05.172Z,4.67
2018-07-12T14:22:33.532Z,7.73
2018-07-12T14:25:01.931Z,7.77
2018-07-12T14:27:30.384Z,5.40
2018-07-12T14:29:58.798Z,5.60
2018-07-12T14:32:27.353Z,9.30
2018-07-12T14:34:55.666Z,6.87
2018-07-12T14:37:24.107Z,7.33
2018-07-12T14:39:52.467Z,9.10
2018-07-12T14:42:20.762Z,5.90
2018-07-12T14:44:48.818Z,4.60
2018-07-12T14:47:16.889Z,7.67
2018-07-12T14:49:45.226Z,6.70
2018-07-12T14:52:13.590Z,3.87
2018-07-12T14:54:41.973Z,5.73
2018-07-12T14:57:10.046Z,7.07
2018-07-12T14:59:38.770Z,5.43
2018-07-12T15:02:07.170Z,8.20
2018-07-12T15:04:35.478Z,5.03
2018-07-12T15:07:03.911Z,6.33
2018-07-12T15:09:32.156Z,5.17
2018-07-12T15:12:00.173Z,5.50
2018-07-12T15:14:28.244Z,6.03
2018-07-12T15:16:56.573Z,3.97
2018-07-12T15:19:24.758Z,6.73
2018-07-12T15:21:52.755Z,6.80
2018-07-12T15:24:21.250Z,11.37
2018-07-12T15:26:49.496Z,4.80
2018-07-12T15:29:18.076Z,6.97
2018-07-12T15:31:46.309Z,5.70
2018-07-12T15:34:14.589Z,5.40
2018-07-12T15:36:42.956Z,5.53
2018-07-12T15:39:11.210Z,11.70
2018-07-12T15:41:40.087Z,10.17
2018-07-12T15:44:08.076Z,6.37
2018-07-12T15:46:36.040Z,4.30
2018-07-12T15:49:04.061Z,9.00
2018-07-12T15:51:32.464Z,4.00
2018-07-12T15:54:00.481Z,4.90
2018-07-12T15:56:28.847Z,11.93
2018-07-12T15:58:57.229Z,5.73
2018-07-12T16:01:25.557Z,6.30
2018-07-12T16:03:53.992Z,4.60
2018-07-12T16:06:22.286Z,5.50
2018-07-12T16:08:50.611Z,4.83
2018-07-12T16:11:18.699Z,6.67
2018-07-12T16:13:46.971Z,4.83
2018-07-12T16:16:15.278Z,6.07
2018-07-12T16:18:43.331Z,5.93
2018-07-12T16:21:11.603Z,7.57
2018-07-12T16:23:39.852Z,3.90
2018-07-12T16:26:08.111Z,6.20
2018-07-12T16:28:36.450Z,5.50
2018-07-12T16:31:04.733Z,6.40
2018-07-12T16:33:33.050Z,8.03
2018-07-12T16:36:01.298Z,4.20
2018-07-12T16:38:29.625Z,4.50
2018-07-12T16:40:57.640Z,8.20
2018-07-12T16:43:25.955Z,6.70
2018-07-12T16:45:54.247Z,7.50
2018-07-12T16:48:22.614Z,10.43
2018-07-12T16:50:50.890Z,4.37
2018-07-12T16:53:19.233Z,8.40
2018-07-12T16:55:47.684Z,5.43
2018-07-12T16:58:16.035Z,5.93
2018-07-12T17:00:44.328Z,5.23
2018-07-12T17:03:12.610Z,4.03
2018-07-12T17:05:41.349Z,5.33
2018-07-12T17:08:09.782Z,5.07
2018-07-12T17:10:38.062Z,7.93
2018-07-12T17:13:06.590Z,4.17
2018-07-12T17:15:35.409Z,6.13
2018-07-12T17:18:03.736Z,5.63
2018-07-12T17:20:32.001Z,7.13
2018-07-12T17:23:00.287Z,6.53
2018-07-12T17:25:28.321Z,6.67
2018-07-12T17:27:56.749Z,6.50
2018-07-12T17:30:25.073Z,10.80
2018-07-12T17:32:53.367Z,4.63
2018-07-12T17:35:21.713Z,7.00
2018-07-12T17:37:50.079Z,6.87
2018-07-12T17:40:18.338Z,5.47
2018-07-12T17:42:46.639Z,4.47
2018-07-12T17:45:14.720Z,9.70
2018-07-12T17:47:43.011Z,11.03
2018-07-12T17:50:10.985Z,6.23
2018-07-12T17:52:39.007Z,6.00
2018-07-12T17:55:07.349Z,7.50
2018-07-12T17:57:35.665Z,6.10
2018-07-12T18:00:04.074Z,6.90
2018-07-12T18:02:32.326Z,9.60
2018-07-12T18:05:00.658Z,6.40
2018-07-12T18:07:28.905Z,4.90
2018-07-12T18:09:57.336Z,6.87
2018-07-12T18:12:25.612Z,6.30
2018-07-12T18:14:54.004Z,4.83
2018-07-12T18:17:22.414Z,5.87
2018-07-12T18:19:50.669Z,5.53
2018-07-12T18:22:19.010Z,7.30
2018-07-12T18:24:46.885Z,7.47
2018-07-12T18:27:15.271Z,8.33
2018-07-12T18:29:43.277Z,7.57
2018-07-12T18:32:11.673Z,9.37
2018-07-12T18:34:39.842Z,10.10
2018-07-12T18:37:07.890Z,7.90
2018-07-12T18:39:36.224Z,7.93
2018-07-12T18:42:04.486Z,6.23
2018-07-12T18:44:32.572Z,9.07
2018-07-12T18:47:00.988Z,5.30
2018-07-12T18:49:29.328Z,6.00
2018-07-12T18:51:57.414Z,9.73
2018-07-12T18:54:25.886Z,9.27
2018-07-12T18:56:54.219Z,9.30
2018-07-12T18:59:22.526Z,8.60
2018-07-12T19:01:50.831Z,6.10
2018-07-12T19:04:18.894Z,8.33
2018-07-12T19:06:47.226Z,6.10
2018-07-12T19:09:15.233Z,12.23
2018-07-12T19:11:43.373Z,7.20
2018-07-12T19:14:11.592Z,8.27
2018-07-12T19:16:39.644Z,6.60
2018-07-12T19:19:08.010Z,4.80
2018-07-12T19:21:36.120Z,5.90
2018-07-12T19:24:04.566Z,8.03
2018-07-12T19:26:32.626Z,10.37
2018-07-12T19:29:01.126Z,7.90
2018-07-12T19:31:29.556Z,6.50
2018-07-12T19:33:57.846Z,5.13
2018-07-12T19:36:26.186Z,7.53
2018-07-12T19:38:54.486Z,9.40
2018-07-12T19:41:22.803Z,8.53
2018-07-12T19:43:51.094Z,6.47
2018-07-12T19:46:19.498Z,8.43
2018-07-12T19:48:47.766Z,10.77
2018-07-12T19:51:16.086Z,10.07
2018-07-12T19:53:44.514Z,6.20
2018-07-12T19:56:12.789Z,7.30
2018-07-12T19:58:41.071Z,7.60
2018-07-12T20:01:09.074Z,17.70
2018-07-12T20:03:37.366Z,6.20
2018-07-12T20:06:06.046Z,8.57
2018-07-12T20:08:34.799Z,9.13
2018-07-12T20:11:02.751Z,10.50
2018-07-12T20:13:31.050Z,7.77
2018-07-12T20:15:59.370Z,8.20
2018-07-12T20:18:27.706Z,6.70
2018-07-12T20:20:55.962Z,8.10
2018-07-12T20:23:24.045Z,8.67
2018-07-12T20:25:52.426Z,7.50
2018-07-12T20:28:20.531Z,8.70
2018-07-12T20:30:48.867Z,8.53
2018-07-12T20:33:17.212Z,6.60
2018-07-12T20:35:45.604Z,7.97
2018-07-12T20:38:13.869Z,17.57
2018-07-12T20:40:41.867Z,9.17
2018-07-12T20:43:14.920Z,9.00
2018-07-12T20:45:43.245Z,9.57
2018-07-12T20:48:11.573Z,12.73
2018-07-12T20:50:39.836Z,9.50
2018-07-12T20:53:08.148Z,11.00
2018-07-12T20:55:36.504Z,8.53
2018-07-12T20:58:04.871Z,10.03
2018-07-12T21:00:33.286Z,14.93
2018-07-12T21:03:01.744Z,8.23
2018-07-12T21:05:30.122Z,11.00
2018-07-12T21:07:58.273Z,7.43
2018-07-12T21:10:26.617Z,14.70
2018-07-12T21:12:55.065Z,9.90
2018-07-12T21:15:23.495Z,10.93
2018-07-12T21:17:51.818Z,14.40
2018-07-12T21:20:19.922Z,11.67
2018-07-12T21:22:48.535Z,8.83
2018-07-12T21:25:16.870Z,11.33
2018-07-12T21:27:45.296Z,11.17
2018-07-12T21:30:13.346Z,13.27
2018-07-12T21:32:41.331Z,8.53
2018-07-12T21:35:10.115Z,8.40
2018-07-12T21:37:38.438Z,10.73
2018-07-12T21:40:07.029Z,13.57
2018-07-12T21:42:35.317Z,9.90
2018-07-12T21:45:03.404Z,10.07
2018-07-12T21:47:31.661Z,10.60
2018-07-12T21:49:59.992Z,10.80
2018-07-12T21:52:27.980Z,10.60
2018-07-12T21:54:56.353Z,10.87
2018-07-12T21:57:25.004Z,10.10
2018-07-12T21:59:53.284Z,11.53
2018-07-12T22:02:21.511Z,8.70
2018-07-12T22:04:49.791Z,10.40
2018-07-12T22:08:27.374Z,12.80
2018-07-12T22:11:00.018Z,13.20
2018-07-12T22:13:29.224Z,11.67
2018-07-12T22:15:57.607Z,10.77
2018-07-12T22:18:25.604Z,9.53
2018-07-12T22:20:53.898Z,10.70
2018-07-12T22:23:22.233Z,11.67
2018-07-12T22:25:50.582Z,10.10
2018-07-12T22:28:18.829Z,10.50
2018-07-12T22:30:46.839Z,15.10
2018-07-12T22:33:15.175Z,11.03
2018-07-12T22:35:43.561Z,12.77
2018-07-12T22:38:12.289Z,13.40
2018-07-12T22:40:40.571Z,10.73
2018-07-12T22:43:08.797Z,14.40
2018-07-12T22:45:37.167Z,8.57
2018-07-12T22:48:05.292Z,11.97
2018-07-12T22:50:33.546Z,13.37
2018-07-12T22:53:01.539Z,9.10
2018-07-12T22:55:29.761Z,16.50
2018-07-12T22:57:57.799Z,10.33
2018-07-12T23:00:26.051Z,9.70
2018-07-12T23:02:54.073Z,12.23
2018-07-12T23:05:22.334Z,10.10
2018-07-12T23:07:50.369Z,12.50
2018-07-12T23:10:18.733Z,8.13
2018-07-12T23:12:47.306Z,10.80
2018-07-12T23:15:15.649Z,13.50
2018-07-12T23:17:43.890Z,9.60
2018-07-12T23:20:11.885Z,11.20
2018-07-12T23:22:40.174Z,9.30
2018-07-12T23:25:08.166Z,15.57
2018-07-12T23:27:36.435Z,14.07
2018-07-12T23:30:05.281Z,10.57
2018-07-12T23:32:33.546Z,12.33
2018-07-12T23:35:01.842Z,10.73
2018-07-12T23:37:29.978Z,14.50
2018-07-12T23:39:58.255Z,9.67
2018-07-12T23:42:26.513Z,9.37
2018-07-12T23:44:54.746Z,11.10
2018-07-12T23:47:22.748Z,10.80
2018-07-12T23:49:51.761Z,8.43
2018-07-12T23:52:20.098Z,10.73
2018-07-12T23:54:48.365Z,7.43
2018-07-12T23:57:16.645Z,13.83
2018-07-12T23:59:44.973Z,12.83
